Time;durP1;ratioP1;P1;durP2;ratioP2;P2;SDS_P1;SDS_P2;PMS_P1;PMS_P2;Temp;Humidity;BMP_temperature;BMP_pressure;BME280_temperature;BME280_humidity;BME280_pressure;Samples;Min_cycle;Max_cycle;Signal;HPM_P1;HPM_P2
2024/03/18 00:00:18;;;;;;;3.33;2.60;;;;;;;21.34;38.47;101706.28;5017655;28;20398;-71
2024/03/18 00:02:45;;;;;;;3.03;2.72;;;;;;;21.33;38.39;101699.34;5022276;28;20037;-71
2024/03/18 00:05:13;;;;;;;3.17;2.88;;;;;;;21.37;38.61;101702.50;5018799;28;20037;-72
2024/03/18 00:07:39;;;;;;;3.92;3.15;;;;;;;21.30;38.53;101694.38;5028469;28;20026;-71
2024/03/18 00:10:09;;;;;;;3.45;2.88;;;;;;;21.26;38.86;101689.59;5029251;28;20033;-71
2024/03/18 00:12:44;;;;;;;3.10;2.80;;;;;;;21.27;38.79;101692.06;5020524;28;20041;-70
2024/03/18 00:15:11;;;;;;;3.75;3.20;;;;;;;21.32;38.35;101687.09;5029051;28;20075;-70
2024/03/18 00:17:52;;;;;;;3.58;3.10;;;;;;;21.31;38.68;101687.25;5019195;28;20514;-70
2024/03/18 00:20:18;;;;;;;3.00;2.70;;;;;;;21.24;38.55;101687.13;5019030;28;20057;-70
2024/03/18 00:22:44;;;;;;;3.55;2.83;;;;;;;21.29;38.76;101689.25;5024782;28;20045;-70
2024/03/18 00:25:13;;;;;;;3.08;2.83;;;;;;;21.24;38.82;101689.78;5025453;28;20088;-70
2024/03/18 00:27:39;;;;;;;3.20;2.90;;;;;;;21.14;38.70;101681.13;5024995;28;20188;-72
2024/03/18 00:30:14;;;;;;;4.03;3.15;;;;;;;21.24;38.69;101687.13;5022695;28;20057;-69
2024/03/18 00:32:40;;;;;;;3.10;2.80;;;;;;;21.26;38.59;101693.06;5024494;28;20052;-70
2024/03/18 00:35:09;;;;;;;4.60;3.00;;;;;;;21.25;38.76;101687.94;5021648;28;20454;-72
2024/03/18 00:37:36;;;;;;;3.55;3.00;;;;;;;21.18;38.83;101685.09;5023004;28;20077;-71
2024/03/18 00:40:01;;;;;;;3.38;2.90;;;;;;;21.18;38.58;101682.44;5026188;28;20110;-71
2024/03/18 00:42:27;;;;;;;3.03;2.72;;;;;;;21.23;38.73;101681.97;5022434;28;20485;-71
2024/03/18 00:44:54;;;;;;;2.72;2.53;;;;;;;21.18;38.55;101679.78;5024448;28;20041;-71
2024/03/18 00:47:20;;;;;;;4.13;2.83;;;;;;;21.14;38.58;101675.84;5024264;28;20045;-70
2024/03/18 00:49:45;;;;;;;3.40;3.00;;;;;;;21.15;38.56;101681.97;5022570;28;20053;-71
2024/03/18 00:52:11;;;;;;;3.20;2.90;;;;;;;21.15;38.59;101671.38;5024295;28;20028;-70
2024/03/18 00:54:37;;;;;;;3.50;2.83;;;;;;;21.16;38.66;101680.97;5018839;28;20091;-70
2024/03/18 00:57:03;;;;;;;3.35;2.92;;;;;;;21.12;38.70;101662.75;5002842;28;20071;-71
2024/03/18 00:59:28;;;;;;;3.50;3.20;;;;;;;21.11;38.65;101657.63;5024628;28;20421;-70
2024/03/18 01:01:54;;;;;;;3.20;2.90;;;;;;;21.16;38.55;101657.13;5023113;28;20052;-71
2024/03/18 01:04:19;;;;;;;3.10;2.80;;;;;;;21.12;38.52;101662.75;5022247;28;20049;-72
2024/03/18 01:06:45;;;;;;;3.15;2.72;;;;;;;21.09;38.85;101659.63;5021458;28;20045;-70
2024/03/18 01:09:12;;;;;;;3.40;3.10;;;;;;;21.07;38.70;101657.16;5020782;28;20038;-70
2024/03/18 01:11:38;;;;;;;3.53;3.22;;;;;;;21.11;38.70;101653.16;5024463;28;20049;-72
2024/03/18 01:14:04;;;;;;;3.03;2.72;;;;;;;21.15;38.62;101647.53;5018886;28;20479;-70
2024/03/18 01:16:30;;;;;;;3.30;2.85;;;;;;;21.00;38.61;101648.19;5020360;28;20068;-71
2024/03/18 01:18:56;;;;;;;3.33;2.88;;;;;;;21.12;38.79;101649.53;5020747;28;20136;-70
2024/03/18 01:21:21;;;;;;;3.20;2.90;;;;;;;21.02;38.90;101651.53;5018556;28;20093;-70
2024/03/18 01:23:48;;;;;;;3.10;2.80;;;;;;;21.02;38.62;101643.59;5017984;28;20483;-72
2024/03/18 01:26:13;;;;;;;3.20;2.90;;;;;;;21.01;38.77;101643.75;5019889;28;20033;-70
2024/03/18 01:28:39;;;;;;;3.92;2.90;;;;;;;20.96;38.93;101644.25;5020954;28;20040;-70
2024/03/18 01:31:05;;;;;;;3.00;2.70;;;;;;;20.99;38.96;101643.91;5022409;28;20076;-70
2024/03/18 01:33:31;;;;;;;3.72;3.20;;;;;;;21.04;38.63;101633.66;5025646;28;20091;-69
2024/03/18 01:35:58;;;;;;;3.25;2.95;;;;;;;21.03;38.58;101639.94;5021969;28;20740;-70
2024/03/18 01:38:24;;;;;;;4.43;3.15;;;;;;;21.03;38.86;101636.47;5022681;28;20049;-70
2024/03/18 01:40:50;;;;;;;3.33;2.88;;;;;;;20.92;38.97;101634.16;5022275;28;20044;-70
2024/03/18 01:43:15;;;;;;;3.78;2.97;;;;;;;20.96;38.76;101632.81;5019166;28;20048;-69
2024/03/18 01:45:41;;;;;;;3.42;3.10;;;;;;;20.98;38.84;101631.66;5018833;28;20072;-70
2024/03/18 01:48:07;;;;;;;3.22;2.90;;;;;;;20.91;38.97;101625.41;5025790;28;20036;-69
2024/03/18 01:50:32;;;;;;;3.75;3.35;;;;;;;20.97;38.80;101624.72;5021303;28;20125;-70
2024/03/18 01:52:58;;;;;;;3.90;3.20;;;;;;;20.96;38.90;101625.72;5026424;28;20075;-70
2024/03/18 01:55:25;;;;;;;3.70;3.15;;;;;;;20.99;38.83;101622.72;5020093;28;20164;-69
2024/03/18 01:57:51;;;;;;;3.45;2.95;;;;;;;20.96;38.77;101614.28;5024393;28;20025;-70
2024/03/18 02:00:25;;;;;;;4.30;3.28;;;;;;;20.93;38.92;101618.09;5025841;28;20042;-70
2024/03/18 02:02:51;;;;;;;3.53;3.22;;;;;;;20.88;38.96;101619.63;5023002;28;20048;-70
2024/03/18 02:05:17;;;;;;;3.47;3.17;;;;;;;20.85;39.12;101607.53;5026393;28;20075;-71
2024/03/18 02:07:42;;;;;;;3.20;2.90;;;;;;;20.90;38.91;101610.50;5022550;28;20099;-70
2024/03/18 02:10:11;;;;;;;3.65;3.25;;;;;;;20.99;38.55;101614.78;5025547;28;20064;-69
2024/03/18 02:12:37;;;;;;;3.92;2.83;;;;;;;20.91;38.63;101614.81;5021704;28;20041;-71
2024/03/18 02:15:03;;;;;;;3.60;3.25;;;;;;;20.94;38.92;101603.06;5022628;28;20075;-71
2024/03/18 02:17:29;;;;;;;3.45;3.13;;;;;;;20.86;38.78;101601.25;5022052;28;20053;-69
2024/03/18 02:19:55;;;;;;;4.03;3.00;;;;;;;20.81;38.95;101587.66;5019760;28;20033;-70
2024/03/18 02:22:21;;;;;;;3.60;3.25;;;;;;;20.92;38.88;101592.63;5018427;28;20040;-71
2024/03/18 02:24:46;;;;;;;3.50;3.20;;;;;;;20.80;38.82;101589.50;5020396;28;20041;-70
2024/03/18 02:27:13;;;;;;;3.88;3.10;;;;;;;20.90;38.66;101588.50;5017320;28;20051;-70
2024/03/18 02:29:39;;;;;;;3.60;3.25;;;;;;;20.75;38.93;101586.53;5021363;28;20042;-71
2024/03/18 02:32:05;;;;;;;3.05;2.75;;;;;;;20.79;38.86;101574.59;5025527;28;20060;-70
2024/03/18 02:34:32;;;;;;;3.47;3.17;;;;;;;20.81;38.73;101585.84;5017546;28;20485;-71
2024/03/18 02:36:57;;;;;;;3.45;3.05;;;;;;;20.76;38.91;101577.59;5020821;28;20096;-70
2024/03/18 02:39:24;;;;;;;3.42;3.13;;;;;;;20.86;38.67;101581.91;5024832;28;20041;-69
2024/03/18 02:41:56;;;;;;;3.33;3.03;;;;;;;20.81;38.78;101587.66;5017397;28;20064;-70
2024/03/18 02:44:22;;;;;;;3.35;3.05;;;;;;;20.73;39.01;101583.22;5022579;28;20064;-71
2024/03/18 02:46:48;;;;;;;3.88;3.38;;;;;;;20.82;38.72;101560.19;5024540;28;20580;-70
2024/03/18 02:49:14;;;;;;;3.38;3.08;;;;;;;20.80;38.78;101581.56;5021342;28;20742;-70
2024/03/18 02:51:40;;;;;;;3.53;3.17;;;;;;;20.78;38.84;101580.91;5022327;28;20049;-71
2024/03/18 02:54:08;;;;;;;3.67;3.10;;;;;;;20.78;38.86;101570.31;5017434;28;20431;-70
2024/03/18 02:56:33;;;;;;;3.40;3.10;;;;;;;20.81;38.66;101566.50;5022791;28;20053;-70
2024/03/18 02:58:59;;;;;;;5.15;3.67;;;;;;;20.78;38.95;101564.19;5020511;28;20083;-70
2024/03/18 03:01:26;;;;;;;3.80;3.28;;;;;;;20.75;38.95;101569.81;5025327;28;20496;-70
2024/03/18 03:03:54;;;;;;;3.92;3.50;;;;;;;20.75;38.89;101565.34;5025294;28;20042;-70
2024/03/18 03:06:21;;;;;;;3.45;3.00;;;;;;;20.70;39.08;101564.22;5018477;28;20047;-70
2024/03/18 03:08:47;;;;;;;3.53;2.95;;;;;;;20.69;39.00;101563.41;5023505;28;20140;-70
2024/03/18 03:11:13;;;;;;;3.55;3.25;;;;;;;20.69;38.91;101567.84;5021518;28;20546;-71
2024/03/18 03:13:39;;;;;;;3.50;3.20;;;;;;;20.66;39.05;101566.38;5027377;28;20067;-70
2024/03/18 03:16:09;;;;;;;3.58;3.28;;;;;;;20.71;38.80;101555.28;5025077;28;20045;-71
2024/03/18 03:18:35;;;;;;;4.13;3.17;;;;;;;20.72;38.82;101551.63;5025270;28;20080;-70
2024/03/18 03:21:00;;;;;;;4.00;3.60;;;;;;;20.71;38.87;101550.00;5018752;28;20068;-70
2024/03/18 03:23:26;;;;;;;4.03;3.38;;;;;;;20.64;39.09;101538.41;5017032;28;20041;-70
2024/03/18 03:25:52;;;;;;;3.53;3.22;;;;;;;20.69;38.84;101550.16;5021589;28;20041;-70
2024/03/18 03:28:18;;;;;;;4.18;3.63;;;;;;;20.62;39.08;101550.97;5020208;28;20052;-70
2024/03/18 03:30:44;;;;;;;4.00;3.30;;;;;;;20.66;38.97;101545.22;5019532;28;20038;-70
2024/03/18 03:33:10;;;;;;;4.15;3.35;;;;;;;20.65;38.93;101545.38;5022886;28;20041;-70
2024/03/18 03:35:37;;;;;;;3.83;3.42;;;;;;;20.67;38.96;101544.22;5021345;28;20073;-71
2024/03/18 03:38:03;;;;;;;3.97;3.40;;;;;;;20.64;39.08;101539.22;5022039;28;20421;-69
2024/03/18 03:40:28;;;;;;;3.70;3.40;;;;;;;20.59;39.29;101546.84;5025368;28;20025;-70
2024/03/18 03:42:54;;;;;;;3.60;3.30;;;;;;;20.58;39.15;101531.16;5017886;28;20448;-70
2024/03/18 03:45:24;;;;;;;5.05;3.50;;;;;;;20.67;38.96;101543.38;5018731;28;20129;-70
2024/03/18 03:47:53;;;;;;;3.70;3.40;;;;;;;20.59;38.94;101538.91;5021425;28;20381;-70
2024/03/18 03:50:19;;;;;;;3.67;3.22;;;;;;;20.61;39.05;101539.56;5017158;28;20033;-70
2024/03/18 03:52:44;;;;;;;3.40;3.10;;;;;;;20.58;39.10;101547.03;5018932;28;20045;-70
2024/03/18 03:55:10;;;;;;;3.50;3.20;;;;;;;20.61;39.05;101536.91;5016717;28;20034;-70
2024/03/18 03:57:36;;;;;;;3.90;3.45;;;;;;;20.56;38.97;101527.84;5014879;28;20045;-71
2024/03/18 04:00:03;;;;;;;3.50;3.20;;;;;;;20.57;38.98;101532.97;5027797;28;20053;-70
2024/03/18 04:02:37;;;;;;;3.55;3.25;;;;;;;20.61;39.14;101539.56;5019201;28;20042;-70
2024/03/18 04:05:07;;;;;;;3.70;3.40;;;;;;;20.59;38.97;101536.25;5022326;28;20046;-70
2024/03/18 04:07:34;;;;;;;3.67;3.13;;;;;;;20.51;39.17;101545.06;5018510;28;20432;-70
2024/03/18 04:10:00;;;;;;;3.67;3.22;;;;;;;20.47;39.14;101543.75;5024995;28;20091;-70
2024/03/18 04:12:25;;;;;;;3.90;3.15;;;;;;;20.60;39.01;101540.56;5018947;28;20037;-71
2024/03/18 04:14:51;;;;;;;3.65;3.22;;;;;;;20.56;38.92;101543.72;5027088;28;20049;-70
2024/03/18 04:17:17;;;;;;;4.57;3.40;;;;;;;20.53;39.03;101550.19;5025226;28;20030;-70
2024/03/18 04:19:42;;;;;;;3.85;3.45;;;;;;;20.51;39.26;101549.53;5019016;28;20049;-70
2024/03/18 04:22:09;;;;;;;3.50;3.20;;;;;;;20.57;39.00;101548.84;5018803;28;20041;-71
2024/03/18 04:24:38;;;;;;;3.33;3.03;;;;;;;20.51;39.18;101547.69;5021962;28;20337;-70
2024/03/18 04:27:05;;;;;;;4.15;3.20;;;;;;;20.50;39.25;101550.50;5019109;28;21178;-70
2024/03/18 04:29:31;;;;;;;3.88;3.50;;;;;;;20.52;38.96;101553.81;5017990;28;20463;-71
2024/03/18 04:31:57;;;;;;;3.42;3.13;;;;;;;20.41;39.23;101541.75;5017612;28;20042;-71
2024/03/18 04:34:24;;;;;;;3.90;3.50;;;;;;;20.48;39.14;101544.56;5016274;28;20095;-71
2024/03/18 04:36:49;;;;;;;3.55;3.17;;;;;;;20.50;39.14;101538.13;5020184;28;20061;-71
2024/03/18 04:39:15;;;;;;;4.10;3.60;;;;;;;20.47;39.13;101538.44;5022290;28;20072;-70
2024/03/18 04:41:40;;;;;;;3.90;3.28;;;;;;;20.48;39.22;101537.47;5021598;28;20049;-70
2024/03/18 04:44:06;;;;;;;3.65;3.25;;;;;;;20.57;39.02;101540.06;5020158;28;20057;-71
2024/03/18 04:46:31;;;;;;;4.38;3.10;;;;;;;20.45;39.07;101540.41;5019446;28;20104;-71
2024/03/18 04:48:57;;;;;;;3.95;3.47;;;;;;;20.47;39.21;101535.81;5020676;28;20048;-70
2024/03/18 04:51:23;;;;;;;4.10;3.20;;;;;;;20.41;39.27;101540.91;5020405;28;20046;-70
2024/03/18 04:53:48;;;;;;;3.80;3.40;;;;;;;20.45;39.10;101537.75;5023739;28;20462;-70
2024/03/18 04:56:14;;;;;;;3.45;3.15;;;;;;;20.44;39.16;101541.41;5053724;28;20061;-71
2024/03/18 04:58:39;;;;;;;3.95;3.55;;;;;;;20.43;39.17;101542.41;5022021;28;20049;-70
2024/03/18 05:01:05;;;;;;;4.03;3.63;;;;;;;20.35;39.39;101538.91;5024909;28;20046;-70
2024/03/18 05:03:30;;;;;;;3.42;3.13;;;;;;;20.42;39.10;101542.56;5023848;28;20026;-70
2024/03/18 05:05:56;;;;;;;3.90;3.50;;;;;;;20.36;39.33;101541.38;5025939;28;20082;-71
2024/03/18 05:08:21;;;;;;;3.75;3.40;;;;;;;20.43;39.17;101544.22;5026509;28;20048;-70
2024/03/18 05:10:47;;;;;;;4.07;3.20;;;;;;;20.41;39.23;101536.44;5025934;28;20056;-70
2024/03/18 05:13:12;;;;;;;3.90;3.40;;;;;;;20.40;39.17;101532.13;5016675;28;20045;-70
2024/03/18 05:15:38;;;;;;;4.20;3.72;;;;;;;20.37;39.34;101534.28;5029564;28;20446;-70
2024/03/18 05:18:04;;;;;;;4.05;3.33;;;;;;;20.48;39.05;101532.16;5024366;28;20107;-70
2024/03/18 05:20:30;;;;;;;4.57;3.30;;;;;;;20.61;38.88;101525.50;5025528;28;20037;-70
2024/03/18 05:22:56;;;;;;;3.38;3.08;;;;;;;20.65;38.70;101522.38;5017852;28;20076;-70
2024/03/18 05:25:22;;;;;;;3.13;2.83;;;;;;;20.65;38.70;101517.09;5023514;28;20073;-71
2024/03/18 05:27:47;;;;;;;3.33;3.03;;;;;;;20.71;38.85;101523.53;5025160;28;20053;-71
2024/03/18 05:30:13;;;;;;;3.95;3.55;;;;;;;20.79;38.60;101523.50;5026289;28;20033;-71
2024/03/18 05:32:38;;;;;;;3.63;3.30;;;;;;;20.76;38.62;101523.84;5010721;28;20045;-71
2024/03/18 05:35:04;;;;;;;3.72;3.08;;;;;;;20.77;38.70;101521.00;5022995;28;20042;-71
2024/03/18 05:37:30;;;;;;;3.67;3.35;;;;;;;20.79;38.92;101520.84;5027988;28;20520;-70
2024/03/18 05:39:55;;;;;;;4.03;3.63;;;;;;;20.87;38.67;101525.31;5028808;28;20041;-70
2024/03/18 05:42:21;;;;;;;4.25;3.38;;;;;;;20.81;38.67;101522.31;5028134;28;20466;-71
2024/03/18 05:44:46;;;;;;;4.13;3.42;;;;;;;20.79;38.66;101512.91;5027403;28;20135;-70
2024/03/18 05:47:12;;;;;;;3.90;3.50;;;;;;;20.82;38.74;101523.16;5027463;28;20051;-70
2024/03/18 05:49:38;;;;;;;3.45;3.15;;;;;;;20.86;38.83;101535.06;5024885;28;20046;-70
2024/03/18 05:52:03;;;;;;;3.65;3.30;;;;;;;20.82;38.67;101528.44;5020743;28;20057;-71
2024/03/18 05:54:30;;;;;;;4.18;3.75;;;;;;;20.83;38.93;101529.31;5024814;28;20045;-71
2024/03/18 05:56:55;;;;;;;3.80;3.40;;;;;;;20.83;39.02;101534.59;5021532;28;20060;-70
2024/03/18 05:59:21;;;;;;;3.50;3.20;;;;;;;20.87;38.83;101535.91;5020948;28;20060;-70
2024/03/18 06:01:46;;;;;;;3.60;3.22;;;;;;;20.85;38.75;101541.38;5019887;28;20451;-70
2024/03/18 06:04:12;;;;;;;3.35;3.05;;;;;;;20.81;38.88;101538.19;5021058;28;20468;-70
2024/03/18 06:06:41;;;;;;;3.78;3.42;;;;;;;20.83;39.08;101542.53;5024996;28;20048;-71
2024/03/18 06:09:07;;;;;;;3.10;2.75;;;;;;;20.85;38.76;101540.53;5024677;28;20041;-70
2024/03/18 06:11:33;;;;;;;3.40;3.10;;;;;;;20.73;39.00;101534.75;5021081;28;20037;-70
2024/03/18 06:14:00;;;;;;;3.13;2.78;;;;;;;20.84;38.82;101542.38;5019726;28;20485;-70
2024/03/18 06:16:26;;;;;;;3.17;2.88;;;;;;;20.85;38.85;101545.84;5025117;28;20030;-69
2024/03/18 06:18:54;;;;;;;3.47;2.90;;;;;;;20.80;39.00;101548.97;5017494;28;20729;-70
2024/03/18 06:21:27;;;;;;;3.35;3.05;;;;;;;20.78;39.16;101545.66;5019792;28;20037;-70
2024/03/18 06:23:59;;;;;;;3.45;2.90;;;;;;;20.73;39.01;101553.28;5017274;28;20037;-69
2024/03/18 06:26:25;;;;;;;3.90;3.45;;;;;;;20.77;39.03;101554.59;5026154;28;20041;-70
2024/03/18 06:28:50;;;;;;;3.50;3.20;;;;;;;20.70;38.99;101545.69;5023920;28;20128;-70
2024/03/18 06:31:16;;;;;;;3.30;2.92;;;;;;;20.68;39.05;101540.56;5022847;28;20100;-70
2024/03/18 06:33:43;;;;;;;3.50;3.03;;;;;;;20.75;38.96;101562.72;5022974;28;20033;-70
2024/03/18 06:36:10;;;;;;;3.30;3.00;;;;;;;20.58;39.42;101553.13;5023459;28;20451;-70
2024/03/18 06:38:39;;;;;;;3.63;3.10;;;;;;;20.72;39.32;101560.41;5019576;28;20132;-71
2024/03/18 06:41:09;;;;;;;3.53;3.22;;;;;;;20.70;39.15;101561.56;5022114;28;20049;-71
2024/03/18 06:43:35;;;;;;;3.92;3.38;;;;;;;20.63;39.23;101552.63;5023337;28;20052;-72
2024/03/18 06:46:01;;;;;;;3.47;3.00;;;;;;;20.71;39.13;101557.94;5024713;28;20060;-71
2024/03/18 06:48:27;;;;;;;3.80;2.97;;;;;;;20.73;39.16;101554.13;5022797;28;20091;-72
2024/03/18 06:50:53;;;;;;;3.03;2.72;;;;;;;20.70;39.32;101564.22;5025785;28;20041;-70
2024/03/18 06:53:19;;;;;;;3.50;3.20;;;;;;;20.67;39.41;101557.44;5021468;28;20217;-70
2024/03/18 06:55:45;;;;;;;3.20;2.90;;;;;;;20.65;39.42;101561.25;5020708;28;20482;-71
2024/03/18 06:58:11;;;;;;;3.38;3.08;;;;;;;20.68;39.27;101560.91;5015317;28;20037;-70
2024/03/18 07:00:37;;;;;;;3.55;3.25;;;;;;;20.65;39.13;101562.09;5022760;28;20041;-71
2024/03/18 07:03:03;;;;;;;3.10;2.78;;;;;;;20.73;39.34;101558.59;5023176;28;20148;-71
2024/03/18 07:05:28;;;;;;;4.25;3.45;;;;;;;20.65;39.12;101561.25;5023914;28;20045;-71
2024/03/18 07:07:54;;;;;;;3.22;2.92;;;;;;;20.58;39.62;101562.91;5022182;28;20139;-72
2024/03/18 07:10:20;;;;;;;3.42;3.13;;;;;;;20.56;39.55;101559.59;5023938;28;20099;-71
2024/03/18 07:12:46;;;;;;;3.47;2.60;;;;;;;20.60;39.36;101564.38;5020668;28;20457;-71
2024/03/18 07:15:13;;;;;;;3.00;2.70;;;;;;;20.63;39.27;101563.22;5019028;28;20041;-72
2024/03/18 07:17:39;;;;;;;3.95;3.20;;;;;;;20.66;39.34;101562.91;5021396;28;20623;-71
2024/03/18 07:20:06;;;;;;;4.10;3.53;;;;;;;20.58;39.35;101560.25;5025481;28;20034;-71
2024/03/18 07:22:36;;;;;;;3.55;3.25;;;;;;;20.60;39.38;101553.78;5023763;28;20041;-71
2024/03/18 07:25:03;;;;;;;3.50;2.90;;;;;;;20.79;39.20;101550.78;5014012;28;20098;-71
2024/03/18 07:27:29;;;;;;;3.30;2.95;;;;;;;21.22;38.49;101548.69;5022597;28;20116;-70
2024/03/18 07:29:56;;;;;;;3.15;2.80;;;;;;;21.42;37.94;101547.31;5018326;28;20037;-70
2024/03/18 07:32:24;;;;;;;3.70;3.40;;;;;;;21.59;37.69;101552.53;5020340;28;20076;-71
2024/03/18 07:34:51;;;;;;;3.92;3.20;;;;;;;21.55;38.14;101552.06;5023221;28;20055;-67
2024/03/18 07:37:20;;;;;;;2.88;2.67;;;;;;;21.54;37.87;101547.72;5021339;28;20096;-72
2024/03/18 07:39:46;;;;;;;4.78;3.03;;;;;;;21.43;38.12;101542.84;5016410;28;20489;-70
2024/03/18 07:42:12;;;;;;;3.42;3.10;;;;;;;21.40;38.40;101551.13;5027119;28;20080;-71
2024/03/18 07:44:41;;;;;;;3.35;3.00;;;;;;;21.31;38.68;101546.84;5023772;28;20056;-73
2024/03/18 07:47:10;;;;;;;3.25;2.95;;;;;;;21.34;38.67;101546.50;5023517;28;20037;-74
2024/03/18 07:49:36;;;;;;;3.30;3.00;;;;;;;21.23;38.63;101542.41;5020727;28;20191;-75
2024/03/18 07:52:04;;;;;;;3.92;3.53;;;;;;;21.22;38.73;101550.53;5023314;28;20033;-75
2024/03/18 07:54:33;;;;;;;3.53;3.20;;;;;;;21.23;38.65;101546.88;5020855;28;20041;-75
2024/03/18 07:56:59;;;;;;;4.18;2.92;;;;;;;21.16;38.79;101552.00;5021099;28;20307;-74
2024/03/18 07:59:24;;;;;;;3.75;2.95;;;;;;;21.08;39.00;101538.81;5021564;28;20032;-74
2024/03/18 08:01:50;;;;;;;4.43;3.05;;;;;;;21.13;38.82;101555.84;5023237;28;20140;-74
2024/03/18 08:04:16;;;;;;;3.78;3.20;;;;;;;21.11;38.85;101552.53;5019510;28;20052;-74
2024/03/18 08:06:46;;;;;;;3.50;3.00;;;;;;;21.09;39.09;101553.69;5022247;28;20037;-75
2024/03/18 08:09:12;;;;;;;;;;;;;;;21.08;39.09;101557.34;5026076;28;20053;-74
2024/03/18 08:11:37;;;;;;;3.95;3.50;;;;;;;21.08;39.07;101557.34;5026015;28;19917;-73
2024/03/18 08:14:03;;;;;;;3.78;3.22;;;;;;;21.05;39.05;101563.00;5020999;28;20056;-73
2024/03/18 08:16:28;;;;;;;3.90;3.13;;;;;;;21.07;39.02;101559.16;5019687;28;20033;-75
2024/03/18 08:18:54;;;;;;;3.72;3.40;;;;;;;21.01;39.30;101562.50;5023424;28;20038;-74
2024/03/18 08:21:19;;;;;;;4.68;3.35;;;;;;;21.03;39.12;101560.50;5026098;28;20045;-73
2024/03/18 08:23:45;;;;;;;4.65;3.20;;;;;;;21.01;39.04;101559.03;5017479;28;20041;-73
2024/03/18 08:26:11;;;;;;;4.25;3.42;;;;;;;20.96;39.21;101564.81;5026420;28;20684;-73
2024/03/18 08:28:36;;;;;;;3.90;3.25;;;;;;;20.97;39.38;101570.94;5017840;28;20041;-73
2024/03/18 08:31:02;;;;;;;3.95;3.40;;;;;;;20.97;39.35;101571.75;5025435;28;20060;-73
2024/03/18 08:33:27;;;;;;;3.90;3.50;;;;;;;20.96;39.40;101564.81;5024434;28;20068;-72
2024/03/18 08:35:53;;;;;;;4.00;3.35;;;;;;;21.02;39.29;101566.81;5025339;28;20049;-74
2024/03/18 08:38:18;;;;;;;4.40;3.53;;;;;;;20.98;39.32;101570.75;5022579;28;20030;-74
2024/03/18 08:40:51;;;;;;;4.03;3.55;;;;;;;20.90;39.39;101562.84;5015154;28;20042;-75
2024/03/18 08:43:16;;;;;;;4.10;3.55;;;;;;;20.95;39.22;101572.94;5025900;28;20132;-74
2024/03/18 08:45:56;;;;;;;4.78;4.03;;;;;;;20.82;39.53;101573.44;5026505;28;20071;-74
2024/03/18 08:48:22;;;;;;;3.90;3.50;;;;;;;20.77;39.46;101576.59;5023672;28;20450;-74
2024/03/18 08:50:48;;;;;;;3.60;3.30;;;;;;;20.75;39.28;101559.25;5023145;28;20053;-74
2024/03/18 08:53:15;;;;;;;4.65;3.53;;;;;;;20.88;39.36;101572.78;5027521;28;20061;-75
2024/03/18 08:55:44;;;;;;;4.50;3.83;;;;;;;20.87;39.52;101571.13;5026766;28;20056;-74
2024/03/18 08:58:09;;;;;;;4.75;3.83;;;;;;;20.76;39.47;101580.25;5021515;28;20041;-74
2024/03/18 09:00:35;;;;;;;3.83;3.30;;;;;;;20.73;39.73;101585.88;5022647;28;20079;-74
2024/03/18 09:03:03;;;;;;;5.20;3.55;;;;;;;20.79;39.37;101590.50;5022085;28;20041;-76
2024/03/18 09:05:29;;;;;;;4.90;3.53;;;;;;;20.87;39.31;101576.44;5022236;28;20119;-75
2024/03/18 09:07:55;;;;;;;5.13;3.95;;;;;;;20.84;39.38;101575.94;5023740;28;20133;-77
2024/03/18 09:10:21;;;;;;;4.10;3.70;;;;;;;21.19;39.08;101574.72;5026249;28;20045;-77
2024/03/18 09:12:47;;;;;;;4.75;4.00;;;;;;;21.95;37.77;101564.25;5026765;28;20065;-76
2024/03/18 09:15:12;;;;;;;4.65;3.67;;;;;;;;;;5029330;28;20053;-77
2024/03/18 09:17:38;;;;;;;4.32;3.70;;;;;;;23.57;34.83;101563.72;5026733;28;20042;-77
2024/03/18 09:20:04;;;;;;;3.50;3.20;;;;;;;23.86;34.55;101556.66;5025925;28;20052;-77
2024/03/18 09:22:30;;;;;;;5.57;4.07;;;;;;;23.77;34.62;101548.00;5022477;28;20045;-77
2024/03/18 09:24:56;;;;;;;3.83;3.42;;;;;;;23.60;35.21;101563.34;5022567;28;20044;-77
2024/03/18 09:27:21;;;;;;;4.07;3.50;;;;;;;23.44;35.46;101563.53;5020782;28;20053;-76
2024/03/18 09:29:49;;;;;;;4.53;3.83;;;;;;;23.28;35.86;101566.38;5024473;28;20037;-77
2024/03/18 09:32:15;;;;;;;4.18;3.78;;;;;;;23.05;36.30;101569.16;5023783;28;20046;-76
2024/03/18 09:34:40;;;;;;;4.47;3.70;;;;;;;22.88;36.58;101569.31;5023166;28;20034;-76
2024/03/18 09:37:06;;;;;;;4.13;3.47;;;;;;;22.77;36.54;101567.06;5022478;28;20061;-76
2024/03/18 09:39:31;;;;;;;4.32;3.60;;;;;;;22.63;37.21;101573.19;5028743;28;20041;-77
2024/03/18 09:41:57;;;;;;;4.28;3.70;;;;;;;22.57;37.28;101582.69;5019477;28;20045;-76
2024/03/18 09:44:22;;;;;;;4.45;3.67;;;;;;;22.47;37.09;101573.34;5024361;28;20048;-75
2024/03/18 09:46:48;;;;;;;8.07;4.60;;;;;;;22.33;37.76;101582.09;5022248;28;20037;-76
2024/03/18 09:49:22;;;;;;;6.00;4.10;;;;;;;22.90;36.84;101574.44;4978618;28;20482;-74
2024/03/18 09:51:49;;;;;;;4.22;3.70;;;;;;;23.12;36.38;101578.84;5019804;28;20106;-74
2024/03/18 09:54:19;;;;;;;4.53;3.80;;;;;;;23.28;36.29;101580.50;5021358;28;20034;-73
2024/03/18 09:56:51;;;;;;;4.68;3.60;;;;;;;23.38;36.08;101583.69;5019068;28;20552;-72
2024/03/18 09:59:17;;;;;;;4.50;3.70;;;;;;;23.42;36.06;101579.66;5022916;28;20505;-76
2024/03/18 10:01:43;;;;;;;4.57;3.70;;;;;;;23.45;36.16;101579.28;5025658;28;20112;-72
2024/03/18 10:04:08;;;;;;;3.53;3.17;;;;;;;23.52;35.99;101582.03;4993342;28;20890;-73
2024/03/18 10:06:34;;;;;;;4.75;3.40;;;;;;;23.56;36.06;101590.47;5019956;28;20038;-72
2024/03/18 10:09:00;;;;;;;5.25;3.60;;;;;;;23.59;36.06;101590.94;4985113;28;20119;-73
2024/03/18 10:11:25;;;;;;;4.40;3.70;;;;;;;23.54;36.18;101589.84;5017347;28;20037;-74
2024/03/18 10:13:51;;;;;;;4.68;3.47;;;;;;;23.57;36.22;101581.50;5015122;28;20029;-73
2024/03/18 10:16:18;;;;;;;4.20;3.30;;;;;;;23.57;36.42;101586.81;5024161;28;20033;-72
2024/03/18 10:18:45;;;;;;;4.05;3.60;;;;;;;23.60;36.24;101581.13;4986032;28;20049;-73
2024/03/18 10:21:12;;;;;;;3.97;3.40;;;;;;;23.48;36.45;101581.56;5024960;28;20132;-72
2024/03/18 10:23:40;;;;;;;4.05;3.50;;;;;;;23.57;36.40;101595.63;4983830;28;20062;-73
2024/03/18 10:26:07;;;;;;;4.43;3.63;;;;;;;23.54;36.73;101587.16;5018504;28;20462;-73
2024/03/18 10:28:32;;;;;;;4.05;3.13;;;;;;;23.55;36.66;101588.81;4983568;28;20056;-71
2024/03/18 10:30:58;;;;;;;4.32;3.80;;;;;;;23.44;36.88;101574.97;5007497;28;20045;-74
2024/03/18 10:33:24;;;;;;;4.13;3.35;;;;;;;23.63;36.59;101594.06;5022627;28;20056;-73
2024/03/18 10:35:51;;;;;;;4.10;3.70;;;;;;;23.54;36.52;101584.50;4980286;28;20510;-72
2024/03/18 10:38:24;;;;;;;4.32;3.92;;;;;;;23.61;36.74;101590.75;5016270;28;20045;-70
2024/03/18 10:40:54;;;;;;;4.20;3.40;;;;;;;23.56;36.69;101591.28;4988258;28;20045;-73
2024/03/18 10:43:42;;;;;;;3.60;3.20;;;;;;;23.52;36.71;101590.03;5023264;28;20049;-73
2024/03/18 10:46:12;;;;;;;3.90;3.38;;;;;;;23.57;36.75;101592.16;4986772;28;20384;-73
2024/03/18 10:48:39;;;;;;;4.22;3.53;;;;;;;23.56;36.81;101593.94;5024551;28;20032;-73
2024/03/18 10:51:12;;;;;;;4.03;3.63;;;;;;;23.54;36.88;101588.00;4985098;28;20033;-72
2024/03/18 10:53:38;;;;;;;3.95;3.42;;;;;;;23.55;36.82;101596.78;5028705;28;20068;-73
2024/03/18 10:56:04;;;;;;;3.95;3.30;;;;;;;23.58;36.83;101599.09;5013432;28;20969;-72
2024/03/18 10:58:31;;;;;;;4.15;3.08;;;;;;;23.57;37.01;101598.28;5024897;28;20042;-72
2024/03/18 11:00:58;;;;;;;4.10;3.70;;;;;;;23.61;36.77;101602.22;4984359;28;20514;-68
2024/03/18 11:03:24;;;;;;;3.67;3.10;;;;;;;23.68;36.81;101592.47;5020471;28;20045;-71
2024/03/18 11:05:52;;;;;;;3.67;3.33;;;;;;;23.75;36.89;101600.53;4993220;28;20669;-69
2024/03/18 11:08:20;;;;;;;4.53;3.55;;;;;;;23.75;36.76;101597.88;5021180;28;20048;-73
2024/03/18 11:10:47;;;;;;;4.10;3.55;;;;;;;23.70;36.96;101593.13;4993228;28;20068;-73
2024/03/18 11:13:14;;;;;;;3.60;3.10;;;;;;;23.75;36.83;101595.22;5015287;28;20099;-73
2024/03/18 11:15:55;;;;;;;3.50;3.20;;;;;;;23.71;36.95;101597.44;5007451;28;20037;-69
2024/03/18 11:18:32;;;;;;;4.03;3.40;;;;;;;23.84;36.79;101599.41;5025194;28;20049;-70
2024/03/18 11:21:00;;;;;;;4.22;3.33;;;;;;;23.82;36.75;101593.44;5007316;28;20421;-70
2024/03/18 11:23:32;;;;;;;3.97;3.38;;;;;;;23.87;36.90;101590.22;5017385;28;20071;-69